createdAt,value
2019-05-16T00:00:36.352Z,5.10
2019-05-16T00:03:43.010Z,8.08
2019-05-16T00:06:49.866Z,8.35
2019-05-16T00:09:58.855Z,6.03
2019-05-16T00:13:04.712Z,9.60
2019-05-16T00:16:11.285Z,6.95
2019-05-16T00:19:18.186Z,7.92
2019-05-16T00:22:28.584Z,6.15
2019-05-16T00:25:34.724Z,6.80
2019-05-16T00:28:41.300Z,8.73
2019-05-16T00:31:48.725Z,7.50
2019-05-16T00:34:58.214Z,6.58
2019-05-16T00:38:04.164Z,6.08
2019-05-16T00:41:11.162Z,7.30
2019-05-16T00:44:18.927Z,6.37
2019-05-16T00:47:28.256Z,6.05
2019-05-16T00:50:34.071Z,5.67
2019-05-16T00:53:43.916Z,7.30
2019-05-16T00:56:50.804Z,5.05
2019-05-16T01:00:00.835Z,6.60
2019-05-16T01:03:08.100Z,6.70
2019-05-16T01:06:19.921Z,6.20
2019-05-16T01:09:23.313Z,5.67
2019-05-16T01:12:30.163Z,9.40
2019-05-16T01:15:38.009Z,6.08
2019-05-16T01:18:48.406Z,5.50
2019-05-16T01:21:52.890Z,6.33
2019-05-16T01:24:59.543Z,7.10
2019-05-16T01:28:08.659Z,6.30
2019-05-16T01:31:14.703Z,6.42
2019-05-16T01:34:21.224Z,6.53
2019-05-16T01:37:27.934Z,6.55
2019-05-16T01:40:34.479Z,6.62
2019-05-16T01:43:41.171Z,6.55
2019-05-16T01:46:50.956Z,5.45
2019-05-16T01:49:58.056Z,7.17
2019-05-16T01:53:04.947Z,5.62
2019-05-16T01:56:11.471Z,6.40
2019-05-16T01:59:20.241Z,6.20
2019-05-16T02:02:28.788Z,7.17
2019-05-16T02:05:35.321Z,5.80
2019-05-16T02:08:42.023Z,7.00
2019-05-16T02:11:50.793Z,6.90
2019-05-16T02:14:58.718Z,6.58
2019-05-16T02:18:08.009Z,6.95
2019-05-16T02:21:13.757Z,6.20
2019-05-16T02:24:20.269Z,5.95
2019-05-16T02:27:28.751Z,7.37
2019-05-16T02:30:35.323Z,8.33
2019-05-16T02:33:41.948Z,5.12
2019-05-16T02:37:10.770Z,6.42
2019-05-16T02:40:01.194Z,7.42
2019-05-16T02:43:12.505Z,7.15
2019-05-16T02:46:21.559Z,7.92
2019-05-16T02:49:33.716Z,7.05
2019-05-16T02:52:35.653Z,6.92
2019-05-16T02:55:42.427Z,6.17
2019-05-16T02:58:52.013Z,7.62
2019-05-16T03:02:00.621Z,7.87
2019-05-16T03:05:06.084Z,7.28
2019-05-16T03:08:13.798Z,8.50
2019-05-16T03:11:21.340Z,9.18
2019-05-16T03:14:31.541Z,8.60
2019-05-16T03:17:43.687Z,5.30
2019-05-16T03:20:54.626Z,6.40
2019-05-16T03:24:01.953Z,7.30
2019-05-16T03:27:10.886Z,6.30
2019-05-16T03:30:17.348Z,7.90
2019-05-16T03:33:33.122Z,4.97
2019-05-16T03:36:34.424Z,6.08
2019-05-16T03:39:40.755Z,6.50
2019-05-16T03:42:47.621Z,6.55
2019-05-16T03:45:57.375Z,5.28
2019-05-16T03:49:04.044Z,5.33
2019-05-16T03:52:11.301Z,6.35
2019-05-16T03:55:21.112Z,5.55
2019-05-16T03:58:26.420Z,6.42
2019-05-16T04:01:34.917Z,5.47
2019-05-16T04:04:41.867Z,4.90
2019-05-16T04:07:53.167Z,5.85
2019-05-16T04:11:01.451Z,8.18
2019-05-16T04:14:10.613Z,5.60
2019-05-16T04:17:15.601Z,5.78
2019-05-16T04:20:24.459Z,6.28
2019-05-16T04:23:31.634Z,4.75
2019-05-16T04:26:40.945Z,7.97
2019-05-16T04:29:47.070Z,5.78
2019-05-16T04:32:53.602Z,6.55
2019-05-16T04:36:01.241Z,6.17
2019-05-16T04:39:11.800Z,5.42
2019-05-16T04:42:17.177Z,7.33
2019-05-16T04:45:23.764Z,7.42
2019-05-16T04:48:31.060Z,8.03
2019-05-16T04:51:41.129Z,6.15
2019-05-16T04:54:46.494Z,9.43
2019-05-16T04:57:52.977Z,6.75
2019-05-16T05:01:01.556Z,6.60
2019-05-16T05:04:11.691Z,6.50
2019-05-16T05:07:15.739Z,5.87
2019-05-16T05:10:22.595Z,3.92
2019-05-16T05:13:30.640Z,6.17
2019-05-16T05:16:37.341Z,7.42
2019-05-16T05:19:43.801Z,5.40
2019-05-16T05:22:50.276Z,5.47
2019-05-16T05:25:56.765Z,6.15
2019-05-16T05:29:03.355Z,4.12
2019-05-16T05:32:14.385Z,5.03
2019-05-16T05:35:20.605Z,5.17
2019-05-16T05:38:27.346Z,6.33
2019-05-16T05:41:33.919Z,5.17
2019-05-16T05:44:42.456Z,5.25
2019-05-16T05:47:50.521Z,8.63
2019-05-16T05:50:57.152Z,7.60
2019-05-16T05:54:03.758Z,7.10
2019-05-16T05:57:10.499Z,6.55
2019-05-16T06:00:17.192Z,6.92
2019-05-16T06:03:23.639Z,5.47
2019-05-16T06:06:32.817Z,6.97
2019-05-16T06:09:50.508Z,5.62
2019-05-16T06:12:46.777Z,4.67
2019-05-16T06:15:55.841Z,4.50
2019-05-16T06:19:02.354Z,4.72
2019-05-16T06:22:10.228Z,6.28
2019-05-16T06:25:16.992Z,6.90
2019-05-16T06:28:23.400Z,6.15
2019-05-16T06:31:31.436Z,5.75
2019-05-16T06:34:40.284Z,5.33
2019-05-16T06:37:46.680Z,5.55
2019-05-16T06:40:53.182Z,5.05
2019-05-16T06:44:01.589Z,5.62
2019-05-16T06:47:16.989Z,5.03
2019-05-16T06:50:16.634Z,5.15
2019-05-16T06:53:23.068Z,4.70
2019-05-16T06:56:32.140Z,5.40
2019-05-16T06:59:40.447Z,5.08
2019-05-16T07:02:50.305Z,4.97
2019-05-16T07:05:56.751Z,5.90
2019-05-16T07:09:05.018Z,3.45
2019-05-16T07:12:11.810Z,4.85
2019-05-16T07:15:20.654Z,5.37
2019-05-16T07:18:27.099Z,5.92
2019-05-16T07:21:33.614Z,3.40
2019-05-16T07:24:40.066Z,4.60
2019-05-16T07:27:50.730Z,5.15
2019-05-16T07:30:56.415Z,3.30
2019-05-16T07:34:03.186Z,4.35
2019-05-16T07:37:10.813Z,4.58
2019-05-16T07:40:25.663Z,4.37
2019-05-16T07:43:25.959Z,4.35
2019-05-16T07:46:32.567Z,5.05
2019-05-16T07:49:40.721Z,3.50
2019-05-16T07:52:50.825Z,4.10
2019-05-16T07:55:56.150Z,4.83
2019-05-16T07:59:02.719Z,6.17
2019-05-16T08:02:10.930Z,6.50
2019-05-16T08:05:20.769Z,6.17
2019-05-16T08:08:26.049Z,6.50
2019-05-16T08:11:32.536Z,5.03
2019-05-16T08:14:40.904Z,6.50
2019-05-16T08:17:51.120Z,5.75
2019-05-16T08:21:00.750Z,6.42
2019-05-16T08:24:08.121Z,6.78
2019-05-16T08:27:14.616Z,5.45
2019-05-16T08:30:21.375Z,5.35
2019-05-16T08:33:31.193Z,6.28
2019-05-16T08:36:36.944Z,4.67
2019-05-16T08:39:43.361Z,7.65
2019-05-16T08:42:52.091Z,5.08
2019-05-16T08:46:01.064Z,4.55
2019-05-16T08:49:06.955Z,5.92
2019-05-16T08:52:13.467Z,4.83
2019-05-16T08:55:21.780Z,4.65
2019-05-16T08:58:33.099Z,4.28
2019-05-16T09:01:36.996Z,4.30
2019-05-16T09:04:45.975Z,4.87
2019-05-16T09:11:09.440Z,3.90
2019-05-16T09:14:09.432Z,4.08
2019-05-16T09:17:18.027Z,5.40
2019-05-16T09:18:32.826Z,3.80
2019-05-16T09:20:24.128Z,5.15
2019-05-16T09:23:32.223Z,4.17
2019-05-16T09:26:38.823Z,4.58
2019-05-16T09:29:47.279Z,4.95
2019-05-16T09:32:53.824Z,3.45
2019-05-16T09:36:00.400Z,5.50
2019-05-16T09:39:09.093Z,4.33
2019-05-16T09:42:17.159Z,3.50
2019-05-16T09:45:27.049Z,5.08
2019-05-16T09:48:33.207Z,4.95
2019-05-16T09:51:39.827Z,5.28
2019-05-16T09:54:46.963Z,4.17
2019-05-16T09:57:54.995Z,5.25
2019-05-16T10:01:01.870Z,5.15
2019-05-16T10:04:08.486Z,5.05
2019-05-16T10:07:17.824Z,3.98
2019-05-16T10:10:26.172Z,4.53
2019-05-16T10:13:33.801Z,4.62
2019-05-16T10:16:42.194Z,5.03
2019-05-16T10:19:49.204Z,4.72
2019-05-16T10:22:57.982Z,4.37
2019-05-16T10:26:04.308Z,5.78
2019-05-16T10:29:11.160Z,4.65
2019-05-16T10:32:17.773Z,4.25
2019-05-16T10:35:29.187Z,4.60
2019-05-16T10:38:32.485Z,5.12
2019-05-16T10:41:38.981Z,4.65
2019-05-16T10:44:48.357Z,5.83
2019-05-16T10:47:54.257Z,6.30
2019-05-16T10:51:01.036Z,4.83
2019-05-16T10:54:13.629Z,3.50
2019-05-16T10:57:16.043Z,4.10
2019-05-16T11:00:49.056Z,4.95
2019-05-16T11:03:31.042Z,4.50
2019-05-16T11:06:37.814Z,6.17
2019-05-16T11:09:55.747Z,4.90
2019-05-16T11:12:55.622Z,5.42
2019-05-16T11:16:02.308Z,6.62
2019-05-16T11:19:17.453Z,5.50
2019-05-16T11:22:18.309Z,4.83
2019-05-16T11:25:29.575Z,5.45
2019-05-16T11:28:33.508Z,5.30
2019-05-16T11:31:39.923Z,7.08
2019-05-16T11:34:47.945Z,4.10
2019-05-16T11:37:57.045Z,4.95
2019-05-16T11:41:03.449Z,5.00
2019-05-16T11:44:10.191Z,6.08
2019-05-16T11:47:16.753Z,7.05
2019-05-16T11:50:23.540Z,5.75
2019-05-16T11:53:30.060Z,5.00
2019-05-16T11:56:37.039Z,7.03
2019-05-16T11:59:43.979Z,5.95
2019-05-16T12:02:51.130Z,6.95
2019-05-16T12:05:58.086Z,6.05
2019-05-16T12:09:06.791Z,5.83
2019-05-16T12:12:16.416Z,4.45
2019-05-16T12:15:23.920Z,6.92
2019-05-16T12:18:30.433Z,5.50
2019-05-16T12:21:37.334Z,5.30
2019-05-16T12:24:43.763Z,5.42
2019-05-16T12:27:52.305Z,5.15
2019-05-16T12:30:58.782Z,6.03
2019-05-16T12:34:09.545Z,5.83
2019-05-16T12:37:14.815Z,5.62
2019-05-16T12:40:21.270Z,5.97
2019-05-16T12:43:44.274Z,5.28
2019-05-16T12:46:36.570Z,6.58
2019-05-16T12:49:43.333Z,6.15
2019-05-16T12:52:51.495Z,5.83
2019-05-16T12:55:57.946Z,5.90
2019-05-16T12:59:04.738Z,5.58
2019-05-16T13:02:11.291Z,4.92
2019-05-16T13:05:18.092Z,5.30
2019-05-16T13:08:26.779Z,8.60
2019-05-16T13:11:33.075Z,5.97
2019-05-16T13:14:40.502Z,4.17
2019-05-16T13:17:48.641Z,7.12
2019-05-16T13:20:57.412Z,8.28
2019-05-16T13:24:03.613Z,5.53
2019-05-16T13:27:10.210Z,5.80
2019-05-16T13:30:17.704Z,6.75
2019-05-16T13:33:24.196Z,8.55
2019-05-16T13:36:30.807Z,7.70
2019-05-16T13:39:37.633Z,7.20
2019-05-16T13:42:47.998Z,6.62
2019-05-16T13:45:52.540Z,7.65
2019-05-16T13:48:59.122Z,7.10
2019-05-16T13:52:07.243Z,6.85
2019-05-16T13:55:16.561Z,6.53
2019-05-16T13:58:22.653Z,7.28
2019-05-16T14:01:29.435Z,7.20
2019-05-16T14:04:37.259Z,7.37
2019-05-16T14:07:47.783Z,7.80
2019-05-16T14:10:53.669Z,7.20
2019-05-16T14:14:00.173Z,6.75
2019-05-16T14:17:14.116Z,5.28
2019-05-16T14:20:18.201Z,5.85
2019-05-16T14:23:24.253Z,6.22
2019-05-16T14:26:30.763Z,6.37
2019-05-16T14:29:37.893Z,6.60
2019-05-16T14:32:50.517Z,7.22
2019-05-16T14:35:53.430Z,11.90
2019-05-16T14:38:59.917Z,8.33
2019-05-16T14:42:06.647Z,5.58
2019-05-16T14:45:19.250Z,8.28
2019-05-16T14:48:27.798Z,5.30
2019-05-16T14:51:34.021Z,6.97
2019-05-16T14:54:40.567Z,7.35
2019-05-16T14:57:50.005Z,6.50
2019-05-16T15:00:57.479Z,7.25
2019-05-16T15:04:07.202Z,6.33
2019-05-16T15:07:13.087Z,6.55
2019-05-16T15:10:20.110Z,5.80
2019-05-16T15:13:28.025Z,6.85
2019-05-16T15:16:34.722Z,6.25
2019-05-16T15:19:41.602Z,5.95
2019-05-16T15:22:48.669Z,6.25
2019-05-16T15:25:55.092Z,8.00
2019-05-16T15:29:01.887Z,5.85
2019-05-16T15:32:08.566Z,5.25
2019-05-16T15:35:18.001Z,6.37
2019-05-16T15:38:26.980Z,7.00
2019-05-16T15:41:33.319Z,5.58
2019-05-16T15:44:39.962Z,8.85
2019-05-16T15:47:49.183Z,6.25
2019-05-16T15:50:59.511Z,7.95
2019-05-16T15:54:06.712Z,7.55
2019-05-16T15:57:13.366Z,6.90
2019-05-16T16:00:43.061Z,8.93
2019-05-16T16:03:51.167Z,6.95
2019-05-16T16:06:57.759Z,7.20
2019-05-16T16:10:07.029Z,5.60
2019-05-16T16:13:13.766Z,6.17
2019-05-16T16:16:20.360Z,6.85
2019-05-16T16:19:28.630Z,9.33
2019-05-16T16:22:37.760Z,9.33
2019-05-16T16:25:50.702Z,6.80
2019-05-16T16:28:55.209Z,5.28
2019-05-16T16:32:02.005Z,6.85
2019-05-16T16:35:08.831Z,7.60
2019-05-16T16:38:16.929Z,6.30
2019-05-16T16:41:23.787Z,7.12
2019-05-16T16:44:30.416Z,7.40
2019-05-16T16:47:38.011Z,8.80
2019-05-16T16:50:45.295Z,8.58
2019-05-16T16:53:52.746Z,9.85
2019-05-16T16:56:59.535Z,8.45
2019-05-16T17:00:07.536Z,8.90
2019-05-16T17:03:16.658Z,7.22
2019-05-16T17:06:31.300Z,7.40
2019-05-16T17:09:38.139Z,12.45
2019-05-16T17:12:48.403Z,9.83
2019-05-16T17:15:56.939Z,9.83
2019-05-16T17:19:03.361Z,7.78
2019-05-16T17:22:17.141Z,7.65
2019-05-16T17:25:21.337Z,6.05
2019-05-16T17:28:28.020Z,7.95
2019-05-16T17:31:34.744Z,9.10
2019-05-16T17:34:41.377Z,8.78
2019-05-16T17:37:49.933Z,10.10
2019-05-16T17:40:57.076Z,7.72
2019-05-16T17:44:03.765Z,8.25
2019-05-16T17:47:10.341Z,10.70
2019-05-16T17:50:17.791Z,9.90
2019-05-16T17:53:26.532Z,9.50
2019-05-16T17:56:33.582Z,8.90
2019-05-16T17:59:40.326Z,10.23
2019-05-16T18:02:49.093Z,8.55
2019-05-16T18:05:56.727Z,9.03
2019-05-16T18:09:06.627Z,9.68
2019-05-16T18:12:14.676Z,7.80
2019-05-16T18:15:24.659Z,9.00
2019-05-16T18:18:33.429Z,9.60
2019-05-16T18:21:39.908Z,8.70
2019-05-16T18:24:51.672Z,9.50
2019-05-16T18:28:13.515Z,11.93
2019-05-16T18:31:20.099Z,10.08
2019-05-16T18:34:28.036Z,11.73
2019-05-16T18:37:34.597Z,9.70
2019-05-16T18:40:41.066Z,10.08
2019-05-16T18:43:50.906Z,8.18
2019-05-16T18:47:06.840Z,8.58
2019-05-16T18:50:06.928Z,9.25
2019-05-16T18:53:13.646Z,9.48
2019-05-16T18:56:20.034Z,10.70
2019-05-16T18:59:28.672Z,10.03
2019-05-16T19:02:37.937Z,9.80
2019-05-16T19:05:47.750Z,9.65
2019-05-16T19:08:56.344Z,8.68
2019-05-16T19:12:03.489Z,9.03
2019-05-16T19:15:10.581Z,9.58
2019-05-16T19:18:18.409Z,10.15
2019-05-16T19:21:26.205Z,10.23
2019-05-16T19:24:34.277Z,10.18
2019-05-16T19:27:41.088Z,7.40
2019-05-16T19:30:48.825Z,8.73
2019-05-16T19:33:56.536Z,7.45
2019-05-16T19:37:03.250Z,8.58
2019-05-16T19:40:11.200Z,10.18
2019-05-16T19:43:17.785Z,9.10
2019-05-16T19:46:26.955Z,11.88
2019-05-16T19:49:32.666Z,9.18
2019-05-16T19:52:39.260Z,9.90
2019-05-16T19:55:48.920Z,11.00
2019-05-16T19:58:57.131Z,10.65
2019-05-16T20:02:03.939Z,9.63
2019-05-16T20:05:11.076Z,11.60
2019-05-16T20:08:17.763Z,11.68
2019-05-16T20:11:27.618Z,11.53
2019-05-16T20:14:36.663Z,10.95
2019-05-16T20:17:52.166Z,9.50
2019-05-16T20:20:51.584Z,11.53
2019-05-16T20:24:00.518Z,9.10
2019-05-16T20:27:08.122Z,10.78
2019-05-16T20:30:17.053Z,12.23
2019-05-16T20:33:23.824Z,9.63
2019-05-16T20:36:30.423Z,11.35
2019-05-16T20:39:37.195Z,9.15
2019-05-16T20:42:47.452Z,9.90
2019-05-16T20:45:52.398Z,9.73
2019-05-16T20:48:59.096Z,9.35
2019-05-16T20:52:07.079Z,9.83
2019-05-16T20:55:14.336Z,12.28
2019-05-16T20:58:20.958Z,10.30
2019-05-16T21:01:29.395Z,9.28
2019-05-16T21:04:37.507Z,9.88
2019-05-16T21:07:48.849Z,10.88
2019-05-16T21:10:57.045Z,9.23
2019-05-16T21:14:03.483Z,11.30
2019-05-16T21:17:10.056Z,10.32
2019-05-16T21:20:19.727Z,9.90
2019-05-16T21:23:27.475Z,10.93
2019-05-16T21:26:36.799Z,8.45
2019-05-16T21:29:47.195Z,9.43
2019-05-16T21:32:53.536Z,8.03
2019-05-16T21:36:00.304Z,11.30
2019-05-16T21:39:08.602Z,8.15
2019-05-16T21:42:18.535Z,9.20
2019-05-16T21:45:28.325Z,10.23
2019-05-16T21:48:36.872Z,8.60
2019-05-16T21:51:42.819Z,8.03
2019-05-16T21:54:51.161Z,7.58
2019-05-16T21:57:57.745Z,11.55
2019-05-16T22:01:06.608Z,8.10
2019-05-16T22:04:13.964Z,9.08
2019-05-16T22:07:32.814Z,9.65
2019-05-16T22:10:30.708Z,9.58
2019-05-16T22:13:41.298Z,8.18
2019-05-16T22:16:49.557Z,10.18
2019-05-16T22:19:59.161Z,9.53
2019-05-16T22:23:06.989Z,9.53
2019-05-16T22:26:13.729Z,10.65
2019-05-16T22:29:21.353Z,10.20
2019-05-16T22:32:28.022Z,9.38
2019-05-16T22:35:34.747Z,8.73
2019-05-16T22:38:41.430Z,9.03
2019-05-16T22:41:51.100Z,10.13
2019-05-16T22:44:57.725Z,10.80
2019-05-16T22:48:07.069Z,10.75
2019-05-16T22:51:16.874Z,8.95
2019-05-16T22:54:23.445Z,11.38
2019-05-16T22:57:29.967Z,9.25
2019-05-16T23:00:41.299Z,11.03
2019-05-16T23:03:49.042Z,14.28
2019-05-16T23:06:56.451Z,10.28
2019-05-16T23:10:03.196Z,13.38
2019-05-16T23:13:09.603Z,12.05
2019-05-16T23:16:17.168Z,10.58
2019-05-16T23:19:26.468Z,11.60
2019-05-16T23:22:36.486Z,9.70
2019-05-16T23:39:49.522Z,13.00
2019-05-16T23:42:56.945Z,9.10
2019-05-16T23:46:03.641Z,13.10
2019-05-16T23:49:10.718Z,11.68
2019-05-16T23:52:17.279Z,9.23
2019-05-16T23:55:23.754Z,10.28
2019-05-16T23:58:33.325Z,10.08
